createdAt,value
2023-08-08T00:01:37.349Z,16.74
2023-08-08T00:04:10.989Z,16.70
2023-08-08T00:20:47.964Z,16.62
2023-08-08T00:23:28.005Z,16.62
2023-08-08T00:26:01.270Z,16.59
2023-08-08T00:28:34.995Z,16.58
2023-08-08T00:31:08.766Z,16.57
2023-08-08T00:33:41.974Z,16.56
2023-08-08T00:36:17.287Z,16.54
2023-08-08T00:46:11.006Z,16.50
2023-08-08T00:48:44.615Z,16.49
2023-08-08T00:51:19.038Z,16.49
2023-08-08T00:53:55.739Z,16.48
2023-08-08T00:56:36.010Z,16.47
2023-08-08T00:59:12.746Z,16.44
2023-08-08T01:12:55.957Z,16.42
2023-08-08T01:15:37.995Z,16.41
2023-08-08T01:18:12.854Z,16.41
2023-08-08T01:20:47.026Z,16.40
2023-08-08T01:23:33.108Z,16.39
2023-08-08T01:26:15.004Z,16.39
2023-08-08T01:39:41.019Z,16.27
2023-08-08T01:42:19.009Z,16.25
2023-08-08T01:45:02.013Z,16.24
2023-08-08T01:47:36.546Z,16.24
2023-08-08T01:50:10.982Z,16.22
2023-08-08T01:52:44.269Z,16.21
2023-08-08T01:55:19.219Z,16.20
2023-08-08T02:08:31.009Z,16.14
2023-08-08T02:11:04.294Z,16.15
2023-08-08T02:13:38.016Z,16.13
2023-08-08T02:16:11.289Z,16.11
2023-08-08T02:18:44.970Z,16.10
2023-08-08T02:21:18.360Z,16.08
2023-08-08T02:34:08.976Z,16.03
2023-08-08T02:36:49.007Z,16.03
2023-08-08T02:39:22.296Z,16.02
2023-08-08T02:41:56.054Z,16.02
2023-08-08T02:44:30.237Z,16.01
2023-08-08T03:00:46.218Z,15.92
2023-08-08T03:03:19.688Z,15.91
2023-08-08T03:05:54.002Z,15.90
2023-08-08T03:08:28.428Z,15.89
2023-08-08T03:11:03.019Z,15.89
2023-08-08T03:13:36.443Z,15.86
2023-08-08T03:16:12.049Z,15.85
2023-08-08T03:26:39.969Z,15.80
2023-08-08T03:29:20.971Z,15.78
2023-08-08T03:31:58.655Z,15.78
2023-08-08T03:34:40.004Z,15.76
2023-08-08T03:37:14.882Z,15.76
2023-08-08T03:39:49.029Z,15.74
2023-08-08T03:53:27.993Z,15.74
2023-08-08T03:56:01.356Z,15.73
2023-08-08T03:58:34.989Z,15.72
2023-08-08T04:01:08.490Z,15.72
2023-08-08T04:03:43.051Z,15.69
2023-08-08T04:06:16.335Z,15.68
2023-08-08T04:22:32.018Z,15.61
2023-08-08T04:25:07.290Z,15.59
2023-08-08T04:27:40.978Z,15.57
2023-08-08T04:30:14.606Z,15.56
2023-08-08T04:32:48.012Z,15.55
2023-08-08T04:35:21.623Z,15.55
2023-08-08T04:48:12.949Z,15.50
2023-08-08T04:50:54.016Z,15.48
2023-08-08T04:53:27.245Z,15.47
2023-08-08T04:56:01.043Z,15.47
2023-08-08T04:58:34.253Z,15.48
2023-08-08T05:01:08.000Z,15.48
2023-08-08T05:14:19.975Z,15.59
2023-08-08T05:16:53.221Z,15.62
2023-08-08T05:19:26.979Z,15.68
2023-08-08T05:22:00.853Z,15.73
2023-08-08T05:24:34.976Z,15.79
2023-08-08T05:27:08.237Z,15.85
2023-08-08T05:29:50.007Z,15.90
2023-08-08T05:40:19.955Z,16.14
2023-08-08T05:42:59.985Z,16.20
2023-08-08T05:45:35.359Z,16.25
2023-08-08T05:48:09.042Z,16.30
2023-08-08T05:50:42.626Z,16.33
2023-08-08T05:53:15.979Z,16.35
2023-08-08T05:55:49.218Z,16.39
2023-08-08T06:08:39.964Z,16.45
2023-08-08T06:11:20.200Z,16.49
2023-08-08T06:13:53.257Z,16.51
2023-08-08T06:16:27.011Z,16.54
2023-08-08T06:19:00.817Z,16.57
2023-08-08T06:21:33.991Z,16.62
2023-08-08T06:34:45.980Z,16.85
2023-08-08T06:37:19.254Z,16.87
2023-08-08T06:39:53.017Z,16.88
2023-08-08T06:42:26.213Z,16.89
2023-08-08T06:45:03.979Z,16.89
2023-08-08T06:47:37.266Z,16.90
2023-08-08T06:50:15.010Z,16.89
2023-08-08T07:00:40.976Z,16.88
2023-08-08T07:03:21.182Z,16.88
2023-08-08T07:05:56.204Z,16.89
2023-08-08T07:08:30.002Z,16.89
2023-08-08T07:11:03.475Z,16.90
2023-08-08T07:13:37.237Z,16.91
2023-08-08T07:16:18.292Z,16.91
2023-08-08T07:29:15.947Z,16.93
2023-08-08T07:31:56.004Z,16.91
2023-08-08T07:34:29.213Z,16.92
2023-08-08T07:37:02.969Z,16.92
2023-08-08T07:39:36.196Z,16.92
2023-08-08T07:55:51.970Z,16.94
2023-08-08T07:58:25.215Z,16.94
2023-08-08T08:01:07.554Z,16.95
2023-08-08T08:03:41.533Z,16.93
2023-08-08T08:06:15.002Z,16.94
2023-08-08T08:08:48.358Z,16.95
2023-08-08T08:11:23.992Z,16.96
2023-08-08T08:21:08.963Z,17.02
2023-08-08T08:23:49.015Z,17.03
2023-08-08T08:26:24.222Z,17.05
2023-08-08T08:28:57.973Z,17.07
2023-08-08T08:31:31.294Z,17.08
2023-08-08T08:34:04.982Z,17.08
2023-08-08T08:36:38.331Z,17.09
2023-08-08T08:49:29.972Z,17.11
2023-08-08T08:52:11.006Z,17.13
2023-08-08T08:54:44.512Z,17.14
2023-08-08T08:57:19.012Z,17.16
2023-08-08T08:59:52.285Z,17.18
2023-08-08T09:16:08.139Z,17.33
2023-08-08T09:18:42.314Z,17.36
2023-08-08T09:21:16.993Z,17.39
2023-08-08T09:23:50.246Z,17.43
2023-08-08T09:26:23.997Z,17.46
2023-08-08T09:28:57.678Z,17.51
2023-08-08T09:31:34.002Z,17.53
2023-08-08T09:41:18.947Z,17.61
2023-08-08T09:44:01.011Z,17.62
2023-08-08T09:46:36.364Z,17.61
2023-08-08T09:49:10.993Z,17.61
2023-08-08T09:51:45.120Z,17.60
2023-08-08T09:54:19.971Z,17.60
2023-08-08T10:10:15.982Z,17.55
2023-08-08T10:12:56.002Z,17.54
2023-08-08T10:15:41.570Z,17.53
2023-08-08T10:18:41.026Z,17.52
2023-08-08T10:21:14.797Z,17.51
2023-08-08T10:34:46.987Z,17.48
2023-08-08T10:37:28.010Z,17.48
2023-08-08T10:40:02.612Z,17.46
2023-08-08T10:43:00.002Z,17.46
2023-08-08T10:45:36.569Z,17.46
2023-08-08T10:48:19.034Z,17.45
2023-08-08T10:50:56.360Z,17.47
2023-08-08T11:03:54.975Z,17.58
2023-08-08T11:06:37.009Z,17.62
2023-08-08T11:09:10.738Z,17.68
2023-08-08T11:11:46.016Z,17.73
2023-08-08T11:14:21.488Z,17.79
2023-08-08T11:30:36.285Z,18.15
2023-08-08T11:35:53.008Z,18.27
2023-08-08T11:38:26.386Z,18.32
2023-08-08T11:41:00.005Z,18.35
2023-08-08T11:54:55.006Z,18.46
2023-08-08T11:57:32.373Z,18.46
2023-08-08T12:00:16.013Z,18.46
2023-08-08T12:02:49.434Z,18.46
2023-08-08T12:05:23.065Z,18.45
2023-08-08T12:07:56.414Z,18.47
2023-08-08T12:10:31.033Z,18.48
2023-08-08T12:23:44.041Z,18.63
2023-08-08T12:26:18.202Z,18.73
2023-08-08T12:28:52.028Z,18.82
2023-08-08T12:31:25.430Z,18.98
2023-08-08T12:34:00.375Z,19.09
2023-08-08T12:36:34.689Z,19.20
2023-08-08T12:49:25.002Z,19.83
2023-08-08T12:52:05.030Z,19.93
2023-08-08T12:54:38.277Z,20.04
2023-08-08T12:57:12.041Z,20.14
2023-08-08T12:59:45.294Z,20.25
2023-08-08T13:16:01.064Z,20.67
2023-08-08T13:18:34.420Z,20.74
2023-08-08T13:21:08.975Z,20.83
2023-08-08T13:23:42.519Z,20.89
2023-08-08T13:26:16.506Z,20.99
2023-08-08T13:28:50.394Z,21.06
2023-08-08T13:31:26.036Z,21.12
2023-08-08T13:41:57.032Z,21.04
2023-08-08T13:44:37.017Z,20.96
2023-08-08T13:47:12.179Z,20.88
2023-08-08T13:49:46.044Z,20.81
2023-08-08T13:52:19.269Z,20.75
2023-08-08T13:54:53.020Z,20.71
2023-08-08T14:08:43.040Z,20.67
2023-08-08T14:11:16.300Z,20.78
2023-08-08T14:13:50.038Z,20.89
2023-08-08T14:16:23.573Z,21.02
2023-08-08T14:18:57.009Z,21.07
2023-08-08T14:21:30.294Z,21.10
2023-08-08T14:37:47.042Z,21.36
2023-08-08T14:40:20.309Z,21.37
2023-08-08T14:42:56.507Z,21.36
2023-08-08T14:45:30.499Z,21.36
2023-08-08T14:48:04.078Z,21.35
2023-08-08T14:50:38.644Z,21.37
2023-08-08T15:03:29.129Z,21.67
2023-08-08T15:06:09.034Z,21.65
2023-08-08T15:08:43.166Z,21.61
2023-08-08T15:11:17.083Z,21.56
2023-08-08T15:13:50.756Z,21.54
2023-08-08T15:16:24.037Z,21.52
2023-08-08T15:29:36.029Z,21.55
2023-08-08T15:32:09.291Z,21.58
2023-08-08T15:34:43.023Z,21.60
2023-08-08T15:37:16.251Z,21.61
2023-08-08T15:39:50.034Z,21.60
2023-08-08T15:42:23.374Z,21.56
2023-08-08T15:45:00.113Z,21.53
2023-08-08T15:58:11.064Z,21.28
2023-08-08T16:00:46.288Z,21.23
2023-08-08T16:03:20.190Z,21.21
2023-08-08T16:05:54.293Z,21.16
2023-08-08T16:08:28.009Z,21.14
2023-08-08T16:11:01.249Z,21.09
2023-08-08T16:23:52.014Z,20.94
2023-08-08T16:26:32.043Z,20.91
2023-08-08T16:29:05.298Z,20.89
2023-08-08T16:31:39.046Z,20.88
2023-08-08T16:34:12.444Z,20.85
2023-08-08T16:36:46.056Z,20.82
2023-08-08T16:49:59.071Z,20.70
2023-08-08T16:52:32.303Z,20.69
2023-08-08T16:55:06.039Z,20.67
2023-08-08T16:57:39.374Z,20.69
2023-08-08T17:00:15.038Z,20.79
2023-08-08T17:02:48.274Z,20.91
2023-08-08T17:05:24.034Z,21.05
2023-08-08T17:15:54.020Z,20.92
2023-08-08T17:18:34.067Z,20.85
2023-08-08T17:21:09.238Z,20.78
2023-08-08T17:23:43.035Z,20.72
2023-08-08T17:26:16.405Z,20.66
2023-08-08T17:28:50.062Z,20.59
2023-08-08T17:31:23.366Z,20.54
2023-08-08T17:44:17.017Z,20.62
2023-08-08T17:46:57.041Z,20.81
2023-08-08T17:49:30.356Z,21.02
2023-08-08T17:52:04.266Z,21.16
2023-08-08T17:54:37.271Z,21.16
2023-08-08T17:57:11.034Z,21.07
2023-08-08T18:10:30.034Z,20.46
2023-08-08T18:13:03.861Z,20.36
2023-08-08T18:15:37.060Z,20.25
2023-08-08T18:18:10.601Z,20.16
2023-08-08T18:20:44.042Z,20.08
2023-08-08T18:23:17.867Z,20.01
2023-08-08T18:25:53.065Z,19.96
2023-08-08T18:36:16.046Z,19.70
2023-08-08T18:38:56.073Z,19.64
2023-08-08T18:41:31.229Z,19.57
2023-08-08T18:44:05.081Z,19.53
2023-08-08T18:46:38.345Z,19.49
2023-08-08T18:49:12.042Z,19.46
2023-08-08T18:51:45.408Z,19.43
2023-08-08T19:04:36.043Z,19.28
2023-08-08T19:07:16.047Z,19.25
2023-08-08T19:09:49.270Z,19.22
2023-08-08T19:12:23.071Z,19.19
2023-08-08T19:14:56.383Z,19.14
2023-08-08T19:31:12.033Z,19.01
2023-08-08T19:33:59.649Z,18.98
2023-08-08T19:36:45.025Z,18.96
2023-08-08T19:39:18.434Z,18.96
2023-08-08T19:41:52.037Z,18.94
2023-08-08T19:44:25.773Z,18.92
2023-08-08T19:47:02.339Z,18.90
2023-08-08T19:56:48.003Z,18.82
2023-08-08T19:59:29.079Z,18.81
2023-08-08T20:02:04.377Z,18.80
2023-08-08T20:04:38.051Z,18.79
2023-08-08T20:07:11.343Z,18.76
2023-08-08T20:09:45.026Z,18.75
2023-08-08T20:23:18.065Z,18.67
2023-08-08T20:25:51.413Z,18.66
2023-08-08T20:28:25.039Z,18.64
2023-08-08T20:30:58.563Z,18.63
2023-08-08T20:33:32.055Z,18.61
2023-08-08T20:36:05.334Z,18.61
2023-08-08T20:54:52.609Z,18.52
2023-08-08T20:57:33.050Z,18.50
2023-08-08T21:00:07.991Z,18.50
2023-08-08T21:02:41.144Z,18.50
2023-08-08T21:05:14.408Z,18.50
2023-08-08T21:18:05.043Z,18.48
2023-08-08T21:20:45.034Z,18.48
2023-08-08T21:23:18.285Z,18.47
2023-08-08T21:25:52.036Z,18.46
2023-08-08T21:28:25.321Z,18.46
2023-08-08T21:30:59.089Z,18.44
2023-08-08T21:44:12.041Z,18.40
2023-08-08T21:46:45.337Z,18.40
2023-08-08T21:49:19.055Z,18.39
2023-08-08T21:51:52.283Z,18.37
2023-08-08T21:54:26.041Z,18.36
2023-08-08T21:56:59.846Z,18.35
2023-08-08T22:10:20.026Z,18.24
2023-08-08T22:13:00.027Z,18.23
2023-08-08T22:15:35.979Z,18.19
2023-08-08T22:18:19.123Z,18.15
2023-08-08T22:20:52.289Z,18.13
2023-08-08T22:23:26.052Z,18.14
2023-08-08T22:26:01.236Z,18.13
2023-08-08T22:38:50.014Z,18.11
2023-08-08T22:41:32.075Z,18.10
2023-08-08T22:44:06.734Z,18.09
2023-08-08T22:46:40.072Z,18.08
2023-08-08T22:49:13.368Z,18.07
2023-08-08T22:51:47.059Z,18.06
2023-08-08T23:04:59.036Z,17.99
2023-08-08T23:07:32.329Z,17.97
2023-08-08T23:10:06.260Z,17.96
2023-08-08T23:12:39.312Z,17.97
2023-08-08T23:15:14.096Z,17.97
2023-08-08T23:31:51.036Z,17.89
2023-08-08T23:34:31.042Z,17.91
2023-08-08T23:37:06.388Z,17.89
2023-08-08T23:39:48.059Z,17.88
2023-08-08T23:42:21.307Z,17.85
2023-08-08T23:44:55.062Z,17.85
2023-08-08T23:58:07.022Z,17.80
